Noorvik, Alaska
Current Conditions -  °F | °C
As of 5:58 PM on Monday 20 Oct 2014 (Local Time) from PFNO Reporting Station
Overcast Overcast  
Wind Chill: 24°   Ceiling: 8000
Heat Index: 34°   Visibility: 10mi
Dew Point: 20°   Wind: 15mph
Humidity: 56%   Direction: 10°N
Pressure: 29.37"   Gusts: NA
Location:  66.84°N, 161.04°W
Report Text: PFNO 210158Z AUTO 01013KT 10SM OVC080 01/M07 A2937 RMK AO2 SLP948 T00111067 FZRANO
Loading
Personal Weather Stations






























Interactive Weather Map
Tropical Storm Tracking
New forecast layout! Learn more

10-Day Weather Forecast

Advertisements
Track Severe Weather on mobile